Time;durP1;ratioP1;P1;durP2;ratioP2;P2;SDS_P1;SDS_P2;PMS_P1;PMS_P2;Temp;Humidity;BMP_temperature;BMP_pressure;BME280_temperature;BME280_humidity;BME280_pressure;Samples;Min_cycle;Max_cycle;Signal;HPM_P1;HPM_P2
2021/08/24 00:00:06;;;;;;;;;;;;;;;18.34;74.28;98130.62;1719339;82;20307;-88
2021/08/24 00:02:35;;;;;;;;;;;;;;;18.29;74.32;98125.48;1703025;82;20251;-88
2021/08/24 00:05:01;;;;;;;;;;;;;;;18.24;74.35;98125.14;1705876;82;22066;-88
2021/08/24 00:07:27;;;;;;;;;;;;;;;18.20;74.38;98125.14;1709389;83;25984;-88
2021/08/24 00:09:53;;;;;;;;;;;;;;;18.17;74.46;98126.77;1730809;81;24616;-88
2021/08/24 00:12:19;;;;;;;;;;;;;;;18.14;74.50;98130.59;1731514;81;20816;-88
2021/08/24 00:14:46;;;;;;;;;;;;;;;18.13;74.56;98130.75;1733070;81;20504;-85
2021/08/24 00:17:12;;;;;;;;;;;;;;;18.09;74.63;98130.74;1721624;82;22077;-85
2021/08/24 00:19:40;;;;;;;;;;;;;;;18.06;74.70;98125.27;1715269;81;25928;-84
2021/08/24 00:22:07;;;;;;;;;;;;;;;18.08;74.77;98125.94;1750407;81;25682;-85
2021/08/24 00:24:33;;;;;;;;;;;;;;;18.07;74.83;98123.44;1686948;84;20268;-84
2021/08/24 00:27:00;;;;;;;;;;;;;;;18.05;74.87;98128.92;1750584;81;24669;-85
2021/08/24 00:29:28;;;;;;;;;;;;;;;18.04;74.93;98125.10;1688209;84;22013;-84
2021/08/24 00:31:55;;;;;;;;;;;;;;;18.05;74.97;98129.42;1753142;80;26039;-85
2021/08/24 00:34:21;;;;;;;;;;;;;;;18.05;75.02;98134.22;1757147;80;24492;-85
2021/08/24 00:36:48;;;;;;;;;;;;;;;18.03;75.09;98130.89;1719345;81;20258;-84
2021/08/24 00:39:15;;;;;;;;;;;;;;;18.04;75.14;98129.91;1717524;82;20216;-84
2021/08/24 00:41:44;;;;;;;;;;;;;;;18.07;75.22;98127.42;1712103;83;22026;-86
2021/08/24 00:44:10;;;;;;;;;;;;;;;18.08;75.29;98129.08;1754896;80;21038;-85
2021/08/24 00:46:38;;;;;;;;;;;;;;;18.09;75.37;98129.42;1714143;81;25273;-86
2021/08/24 00:49:06;;;;;;;;;;;;;;;18.08;75.43;98130.41;1733094;81;20265;-85
2021/08/24 00:51:34;;;;;;;;;;;;;;;18.07;75.51;98129.57;1733473;81;25602;-86
2021/08/24 00:54:00;;;;;;;;;;;;;;;18.07;75.56;98124.28;1732282;82;22082;-86
2021/08/24 00:56:28;;;;;;;;;;;;;;;18.09;75.61;98130.25;1731153;81;20982;-86
2021/08/24 00:58:54;;;;;;;;;;;;;;;18.12;75.68;98133.89;1752804;81;24500;-85
2021/08/24 01:01:20;;;;;;;;;;;;;;;18.14;75.73;98135.89;1754019;81;20309;-86
2021/08/24 01:03:48;;;;;;;;;;;;;;;18.13;75.81;98147.96;1785299;79;20282;-85
2021/08/24 01:06:18;;;;;;;;;;;;;;;18.14;75.84;98149.63;1782788;79;22103;-86
2021/08/24 01:08:52;;;;;;;;;;;;;;;18.17;75.90;98149.29;1779922;80;26155;-86
2021/08/24 01:11:26;;;;;;;;;;;;;;;18.17;75.96;98147.96;1785498;79;24553;-86
2021/08/24 01:14:00;;;;;;;;;;;;;;;18.19;76.02;98152.61;1784162;79;20573;-85
2021/08/24 01:16:45;;;;;;;;;;;;;;;18.21;76.07;98155.95;1772013;79;24804;-85
2021/08/24 01:19:18;;;;;;;;;;;;;;;18.26;76.12;98147.02;1783342;79;21972;-86
2021/08/24 01:21:48;;;;;;;;;;;;;;;18.27;76.17;98146.83;1747079;79;26750;-85
2021/08/24 01:24:16;;;;;;;;;;;;;;;18.23;76.21;98142.86;1781376;79;24524;-86
2021/08/24 01:26:48;;;;;;;;;;;;;;;18.22;76.27;98152.31;1755356;80;20156;-85
2021/08/24 01:29:31;;;;;;;;;;;;;;;18.23;76.34;98148.64;1747907;80;24906;-86
2021/08/24 01:32:20;;;;;;;;;;;;;;;18.20;76.40;98143.69;1782579;79;22045;-85
2021/08/24 01:35:07;;;;;;;;;;;;;;;18.21;76.47;98142.70;1782883;79;26287;-85
2021/08/24 01:37:41;;;;;;;;;;;;;;;18.24;76.54;98141.87;1746849;80;26739;-85
2021/08/24 01:40:09;;;;;;;;;;;;;;;18.26;76.59;98135.09;1783074;79;20318;-85
2021/08/24 01:42:38;;;;;;;;;;;;;;;18.22;76.65;98131.92;1785294;79;25069;-85
2021/08/24 01:45:06;;;;;;;;;;;;;;;18.25;76.69;98129.45;1786452;79;21957;-85
2021/08/24 01:47:46;;;;;;;;;;;;;;;18.30;76.74;98129.80;1785735;79;26691;-85
2021/08/24 01:50:13;;;;;;;;;;;;;;;18.33;76.78;98132.10;1787284;79;24523;-84
2021/08/24 01:52:46;;;;;;;;;;;;;;;18.34;76.82;98131.12;1786488;79;20149;-84
2021/08/24 01:55:15;;;;;;;;;;;;;;;18.30;76.87;98131.12;1786928;79;25575;-85
2021/08/24 01:57:59;;;;;;;;;;;;;;;18.21;76.90;98132.94;1794852;77;22566;-84
2021/08/24 02:00:25;;;;;;;;;;;;;;;18.16;76.97;98136.57;1797443;79;26879;-84
2021/08/24 02:03:04;;;;;;;;;;;;;;;18.20;77.03;98141.03;1799614;79;20625;-84
2021/08/24 02:05:44;;;;;;;;;;;;;;;18.29;77.06;98142.21;1794185;79;20257;-84
2021/08/24 02:08:12;;;;;;;;;;;;;;;18.36;77.14;98138.42;1798035;78;25492;-84
2021/08/24 02:10:39;;;;;;;;;;;;;;;18.43;77.18;98141.25;1798281;78;21981;-84
2021/08/24 02:13:06;;;;;;;;;;;;;;;18.43;77.18;98143.90;1800318;78;25961;-84
2021/08/24 02:15:40;;;;;;;;;;;;;;;18.44;77.22;98141.59;1800384;79;24501;-84
2021/08/24 02:18:07;;;;;;;;;;;;;;;18.40;77.22;98146.37;1800021;79;20332;-84
2021/08/24 02:20:38;;;;;;;;;;;;;;;18.40;77.23;98146.37;1795175;79;24191;-84
2021/08/24 02:23:06;;;;;;;;;;;;;;;18.41;77.27;98142.73;1798682;79;22080;-86
2021/08/24 02:25:34;;;;;;;;;;;;;;;18.41;77.29;98142.73;1798372;79;26051;-86
2021/08/24 02:28:11;;;;;;;;;;;;;;;18.37;77.31;98140.08;1799772;79;24492;-85
2021/08/24 02:30:48;;;;;;;;;;;;;;;18.33;77.33;98140.05;1800406;79;20235;-85
2021/08/24 02:33:17;;;;;;;;;;;;;;;18.29;77.35;98136.08;1798478;79;25539;-85
2021/08/24 02:35:59;;;;;;;;;;;;;;;18.26;77.37;98141.22;1799651;79;21659;-85
2021/08/24 02:38:30;;;;;;;;;;;;;;;18.25;77.39;98133.43;1794578;79;26054;-85
2021/08/24 02:41:13;;;;;;;;;;;;;;;18.23;77.41;98134.08;1796864;79;25098;-85
2021/08/24 02:43:43;;;;;;;;;;;;;;;18.18;77.40;98135.89;1791575;79;20290;-85
2021/08/24 02:46:23;;;;;;;;;;;;;;;18.18;77.43;98137.22;1800171;79;25394;-85
2021/08/24 02:48:51;;;;;;;;;;;;;;;18.17;77.44;98136.88;1800549;79;22058;-85
2021/08/24 02:51:18;;;;;;;;;;;;;;;18.16;77.47;98137.06;1799022;79;26040;-85
2021/08/24 02:53:46;;;;;;;;;;;;;;;18.15;77.51;98139.38;1797895;79;24416;-85
2021/08/24 02:56:14;;;;;;;;;;;;;;;18.15;77.51;98136.72;1798639;79;20184;-85
2021/08/24 02:58:39;;;;;;;;;;;;;;;18.13;77.54;98136.05;1767454;79;24995;-85
2021/08/24 03:01:05;;;;;;;;;;;;;;;18.08;77.56;98127.27;1753461;80;20833;-85
2021/08/24 03:03:31;;;;;;;;;;;;;;;18.05;77.61;98128.92;1752505;80;20960;-85
2021/08/24 03:06:03;;;;;;;;;;;;;;;18.01;77.62;98127.56;1757746;79;24469;-85
2021/08/24 03:08:32;;;;;;;;;;;;;;;18.01;77.65;98124.09;1756017;80;20272;-85
2021/08/24 03:10:58;;;;;;;;;;;;;;;18.00;77.70;98125.10;1758621;80;24799;-85
2021/08/24 03:13:29;;;;;;;;;;;;;;;18.02;77.76;98123.10;1757720;80;20833;-85
2021/08/24 03:16:00;;;;;;;;;;;;;;;18.00;77.81;98119.80;1744001;80;25946;-88
2021/08/24 03:18:33;;;;;;;;;;;;;;;18.00;77.86;98118.48;1748830;80;24528;-88
2021/08/24 03:21:01;;;;;;;;;;;;;;;18.01;77.91;98126.24;1718819;81;20212;-88
2021/08/24 03:23:37;;;;;;;;;;;;;;;18.01;77.94;98129.38;1744119;81;25812;-88
2021/08/24 03:26:03;;;;;;;;;;;;;;;18.01;78.01;98130.70;1743547;80;22080;-88
2021/08/24 03:28:29;;;;;;;;;;;;;;;17.96;78.04;98126.73;1755744;80;20969;-88
2021/08/24 03:30:55;;;;;;;;;;;;;;;17.92;78.10;98127.22;1757839;80;20781;-88
2021/08/24 03:33:21;;;;;;;;;;;;;;;17.88;78.13;98126.72;1734765;81;20314;-87
2021/08/24 03:35:47;;;;;;;;;;;;;;;17.88;78.18;98127.21;1758871;80;24799;-88
2021/08/24 03:38:13;;;;;;;;;;;;;;;17.89;78.21;98128.88;1752105;80;22745;-88
2021/08/24 03:40:39;;;;;;;;;;;;;;;17.86;78.25;98131.34;1756203;80;25995;-88
2021/08/24 03:43:05;;;;;;;;;;;;;;;17.88;78.30;98127.21;1753656;80;20269;-88
2021/08/24 03:45:32;;;;;;;;;;;;;;;17.91;78.35;98122.41;1756357;80;20493;-88
2021/08/24 03:47:58;;;;;;;;;;;;;;;17.94;78.38;98128.73;1760883;80;25318;-88
2021/08/24 03:50:24;;;;;;;;;;;;;;;17.94;78.42;98134.02;1756823;80;22134;-87
2021/08/24 03:52:50;;;;;;;;;;;;;;;17.94;78.46;98138.00;1739692;80;26120;-87
2021/08/24 03:55:17;;;;;;;;;;;;;;;17.96;78.49;98133.84;1732791;81;20239;-87
2021/08/24 03:57:44;;;;;;;;;;;;;;;17.94;78.52;98138.00;1757238;80;20235;-87
2021/08/24 04:00:14;;;;;;;;;;;;;;;17.95;78.56;98142.28;1789599;79;24734;-87
2021/08/24 04:02:43;;;;;;;;;;;;;;;18.00;78.61;98140.98;1801430;79;22231;-88
2021/08/24 04:05:10;;;;;;;;;;;;;;;17.99;78.61;98141.48;1807628;79;26035;-88
2021/08/24 04:07:36;;;;;;;;;;;;;;;18.00;78.65;98137.85;1808343;79;24496;-87
2021/08/24 04:10:04;;;;;;;;;;;;;;;18.00;78.66;98146.28;1808364;79;20289;-88
2021/08/24 04:12:30;;;;;;;;;;;;;;;18.01;78.70;98151.40;1807074;79;24869;-88
2021/08/24 04:15:00;;;;;;;;;;;;;;;17.98;78.74;98151.24;1746581;79;37201;-88
2021/08/24 04:17:26;;;;;;;;;;;;;;;17.98;78.75;98159.19;1806932;79;26140;-87
2021/08/24 04:19:58;;;;;;;;;;;;;;;18.02;78.78;98149.58;1793217;78;20278;-88
2021/08/24 04:22:32;;;;;;;;;;;;;;;18.09;78.82;98151.93;1801643;78;20526;-88
2021/08/24 04:25:01;;;;;;;;;;;;;;;18.11;78.84;98158.70;1803745;78;24801;-87
2021/08/24 04:27:27;;;;;;;;;;;;;;;18.12;78.86;98158.22;1799193;78;22014;-88
2021/08/24 04:29:53;;;;;;;;;;;;;;;18.15;78.90;98156.59;1802118;78;25997;-88
2021/08/24 04:32:24;;;;;;;;;;;;;;;18.17;78.92;98159.88;1796838;78;20848;-88
2021/08/24 04:34:50;;;;;;;;;;;;;;;18.09;78.94;98167.33;1759624;80;20263;-88
2021/08/24 04:37:16;;;;;;;;;;;;;;;18.07;78.95;98161.84;1763627;80;24805;-88
2021/08/24 04:39:42;;;;;;;;;;;;;;;18.07;78.99;98165.81;1751277;80;20384;-84
2021/08/24 04:42:08;;;;;;;;;;;;;;;18.06;79.01;98168.12;1798642;78;20917;-84
2021/08/24 04:44:34;;;;;;;;;;;;;;;18.04;79.01;98170.95;1760948;80;20852;-84
2021/08/24 04:47:00;;;;;;;;;;;;;;;18.06;79.04;98172.93;1758299;80;20315;-84
2021/08/24 04:49:26;;;;;;;;;;;;;;;18.07;79.05;98177.24;1763816;80;20265;-85
2021/08/24 04:51:52;;;;;;;;;;;;;;;18.10;79.09;98183.56;1796849;78;20248;-85
2021/08/24 04:54:18;;;;;;;;;;;;;;;18.10;79.11;98178.27;1758732;80;21140;-84
2021/08/24 04:56:44;;;;;;;;;;;;;;;18.14;79.11;98183.56;1755586;80;20332;-85
2021/08/24 04:59:10;;;;;;;;;;;;;;;18.21;79.15;98185.91;1754616;80;20159;-85
2021/08/24 05:01:42;;;;;;;;;;;;;;;18.24;79.15;98187.39;1794978;78;24781;-84
2021/08/24 05:04:22;;;;;;;;;;;;;;;18.25;79.18;98183.77;1804569;78;22134;-84
2021/08/24 05:06:53;;;;;;;;;;;;;;;18.17;79.17;98184.55;1789478;78;26025;-85
2021/08/24 05:09:22;;;;;;;;;;;;;;;18.17;79.17;98183.23;1752800;80;24460;-84
2021/08/24 05:11:48;;;;;;;;;;;;;;;18.27;79.22;98184.44;1793600;79;20627;-84
2021/08/24 05:14:14;;;;;;;;;;;;;;;18.35;79.29;98187.93;1756263;80;24749;-84
2021/08/24 05:16:41;;;;;;;;;;;;;;;18.39;79.30;98181.30;1761897;80;20397;-85
2021/08/24 05:19:07;;;;;;;;;;;;;;;18.40;79.30;98177.67;1750313;80;26076;-85
2021/08/24 05:21:36;;;;;;;;;;;;;;;18.42;79.33;98181.48;1794302;79;24428;-85
2021/08/24 05:24:03;;;;;;;;;;;;;;;18.50;79.35;98181.98;1803922;79;20619;-85
2021/08/24 05:26:29;;;;;;;;;;;;;;;18.49;79.32;98178.53;1797117;79;24919;-85
2021/08/24 05:28:55;;;;;;;;;;;;;;;18.46;79.33;98177.52;1795946;79;22039;-85
2021/08/24 05:31:21;;;;;;;;;;;;;;;18.43;79.31;98181.83;1791912;79;26072;-85
2021/08/24 05:33:47;;;;;;;;;;;;;;;18.44;79.30;98188.77;1791035;79;24344;-85
2021/08/24 05:36:13;;;;;;;;;;;;;;;18.54;79.33;98182.02;1797622;79;20798;-85
2021/08/24 05:38:40;;;;;;;;;;;;;;;18.67;79.36;98188.51;1798349;79;24747;-84
2021/08/24 05:41:08;;;;;;;;;;;;;;;18.73;79.37;98194.98;1772294;79;22102;-85
2021/08/24 05:43:34;;;;;;;;;;;;;;;18.80;79.34;98191.52;1793740;79;26186;-84
2021/08/24 05:46:04;;;;;;;;;;;;;;;18.88;79.34;98203.10;1795840;79;24363;-84
2021/08/24 05:48:31;;;;;;;;;;;;;;;18.91;79.29;98199.64;1794116;79;20250;-84
2021/08/24 05:50:57;;;;;;;;;;;;;;;18.93;79.22;98202.14;1792375;79;24744;-84
2021/08/24 05:53:24;;;;;;;;;;;;;;;18.93;79.16;98203.47;1794154;79;22129;-84
2021/08/24 05:55:50;;;;;;;;;;;;;;;18.90;79.10;98202.45;1796331;79;26019;-84
2021/08/24 05:58:16;;;;;;;;;;;;;;;18.82;79.04;98201.94;1796719;79;24406;-84
2021/08/24 06:00:42;;;;;;;;;;;;;;;18.77;79.03;98203.77;1764798;80;20356;-84
2021/08/24 06:03:08;;;;;;;;;;;;;;;18.72;78.96;98206.08;1746625;80;25495;-84
2021/08/24 06:05:38;;;;;;;;;;;;;;;18.69;78.92;98203.77;1738335;80;22032;-86
2021/08/24 06:08:04;;;;;;;;;;;;;;;18.71;78.89;98206.27;1747160;80;25989;-86
2021/08/24 06:10:30;;;;;;;;;;;;;;;18.67;78.87;98207.56;1712420;82;24414;-86
2021/08/24 06:12:56;;;;;;;;;;;;;;;18.64;78.84;98206.58;1741274;80;20189;-85
2021/08/24 06:15:22;;;;;;;;;;;;;;;18.60;78.82;98208.70;1759827;80;20209;-86
2021/08/24 06:17:48;;;;;;;;;;;;;;;18.57;78.82;98214.34;1748584;80;20293;-86
2021/08/24 06:20:15;;;;;;;;;;;;;;;18.53;78.83;98213.48;1748599;80;25882;-86
2021/08/24 06:22:41;;;;;;;;;;;;;;;18.51;78.82;98217.61;1746557;80;24405;-86
2021/08/24 06:25:08;;;;;;;;;;;;;;;18.55;78.84;98219.45;1743704;80;20320;-86
2021/08/24 06:27:34;;;;;;;;;;;;;;;18.56;78.90;98220.62;1697226;82;24816;-86
2021/08/24 06:30:00;;;;;;;;;;;;;;;18.56;78.91;98221.95;1708192;82;22049;-86
2021/08/24 06:32:28;;;;;;;;;;;;;;;18.59;78.93;98226.95;1743587;80;20950;-86
2021/08/24 06:34:56;;;;;;;;;;;;;;;18.62;78.93;98233.73;1708425;82;25106;-86
2021/08/24 06:37:24;;;;;;;;;;;;;;;18.61;78.92;98232.06;1711529;82;20214;-86
2021/08/24 06:39:50;;;;;;;;;;;;;;;18.65;78.91;98236.91;1749967;80;24763;-86
2021/08/24 06:42:16;;;;;;;;;;;;;;;18.65;78.88;98234.25;1728067;80;20224;-85
2021/08/24 06:44:42;;;;;;;;;;;;;;;18.56;78.87;98228.58;1713282;81;21004;-85
2021/08/24 06:47:08;;;;;;;;;;;;;;;18.51;78.82;98234.83;1706964;82;24406;-87
2021/08/24 06:49:40;;;;;;;;;;;;;;;18.49;78.81;98241.30;1758451;80;20249;-87
2021/08/24 06:52:06;;;;;;;;;;;;;;;18.53;78.83;98245.28;1743701;79;24056;-87
2021/08/24 06:54:33;;;;;;;;;;;;;;;18.56;78.82;98247.13;1737803;80;22764;-85
2021/08/24 06:57:02;;;;;;;;;;;;;;;18.58;78.83;98244.33;1706248;82;25856;-85
2021/08/24 06:59:34;;;;;;;;;;;;;;;18.63;78.87;98242.02;1742350;80;25267;-85
2021/08/24 07:02:00;;;;;;;;;;;;;;;18.63;78.85;98245.50;1759513;81;20323;-84
2021/08/24 07:04:27;;;;;;;;;;;;;;;18.75;78.87;98247.36;1751316;81;20689;-85
2021/08/24 07:06:55;;;;;;;;;;;;;;;18.82;78.91;98250.19;1754333;81;21984;-85
2021/08/24 07:09:21;;;;;;;;;;;;;;;18.93;78.91;98251.20;1759660;81;26198;-85
2021/08/24 07:11:47;;;;;;;;;;;;;;;19.03;78.91;98252.70;1750844;81;20360;-85
2021/08/24 07:14:14;;;;;;;;;;;;;;;19.06;78.88;98256.83;1751484;81;20827;-85
2021/08/24 07:16:44;;;;;;;;;;;;;;;19.02;78.83;98258.99;1712258;81;24720;-85
2021/08/24 07:19:10;;;;;;;;;;;;;;;19.06;78.80;98262.97;1757383;81;21937;-85
2021/08/24 07:21:37;;;;;;;;;;;;;;;19.07;78.73;98263.80;1760721;79;25884;-85
2021/08/24 07:24:04;;;;;;;;;;;;;;;19.04;78.67;98262.78;1783310;79;24503;-85
2021/08/24 07:26:31;;;;;;;;;;;;;;;19.01;78.60;98265.78;1776848;79;20282;-85
2021/08/24 07:28:57;;;;;;;;;;;;;;;18.98;78.55;98273.59;1787341;79;24736;-85
2021/08/24 07:31:24;;;;;;;;;;;;;;;18.97;78.49;98267.11;1780114;79;21927;-85
2021/08/24 07:33:50;;;;;;;;;;;;;;;18.95;78.40;98266.43;1773589;79;25960;-85
2021/08/24 07:36:17;;;;;;;;;;;;;;;18.98;78.33;98269.61;1773574;79;20307;-85
2021/08/24 07:38:43;;;;;;;;;;;;;;;18.98;78.26;98268.77;1782791;79;20457;-85
2021/08/24 07:41:13;;;;;;;;;;;;;;;18.94;78.19;98273.55;1739804;81;24792;-85
2021/08/24 07:43:39;;;;;;;;;;;;;;;18.97;78.13;98265.78;1779807;79;21993;-84
2021/08/24 07:46:05;;;;;;;;;;;;;;;19.02;78.04;98268.77;1785171;79;26022;-84
2021/08/24 07:48:34;;;;;;;;;;;;;;;18.98;78.00;98271.42;1776748;79;20755;-85
2021/08/24 07:51:00;;;;;;;;;;;;;;;18.89;77.95;98276.37;1781581;79;20220;-85
2021/08/24 07:53:26;;;;;;;;;;;;;;;18.78;77.90;98277.02;1784755;79;24882;-84
2021/08/24 07:55:52;;;;;;;;;;;;;;;18.69;77.94;98282.47;1720459;81;22101;-85
2021/08/24 07:58:21;;;;;;;;;;;;;;;18.59;77.98;98285.75;1752429;80;21113;-85
2021/08/24 08:00:48;;;;;;;;;;;;;;;18.50;78.02;98284.02;1734511;80;25094;-85
2021/08/24 08:03:26;;;;;;;;;;;;;;;18.44;78.10;98284.16;1771604;79;20510;-85
2021/08/24 08:05:53;;;;;;;;;;;;;;;18.43;78.17;98287.83;1791159;79;24704;-88
2021/08/24 08:08:28;;;;;;;;;;;;;;;18.43;78.26;98291.80;1780659;79;21954;-88
2021/08/24 08:11:04;;;;;;;;;;;;;;;18.40;78.34;98292.94;1779866;79;26052;-87
2021/08/24 08:13:30;;;;;;;;;;;;;;;18.35;78.44;98295.23;1780183;79;24564;-88
2021/08/24 08:15:58;;;;;;;;;;;;;;;18.35;78.53;98298.38;1783693;79;20141;-86
2021/08/24 08:18:24;;;;;;;;;;;;;;;18.31;78.60;98299.69;1755144;80;25392;-86
2021/08/24 08:20:50;;;;;;;;;;;;;;;18.25;78.65;98297.67;1751282;80;22025;-85
2021/08/24 08:23:17;;;;;;;;;;;;;;;18.22;78.74;98301.98;1775421;79;21048;-86
2021/08/24 08:25:43;;;;;;;;;;;;;;;18.26;78.84;98303.31;1779347;79;24461;-85
2021/08/24 08:28:15;;;;;;;;;;;;;;;18.26;78.96;98308.61;1780653;79;20651;-85
2021/08/24 08:30:43;;;;;;;;;;;;;;;18.22;79.04;98305.95;1781483;79;25141;-85
2021/08/24 08:33:09;;;;;;;;;;;;;;;18.20;79.12;98309.23;1779123;79;22060;-85
2021/08/24 08:35:35;;;;;;;;;;;;;;;18.20;79.20;98306.59;1781900;79;25956;-84
2021/08/24 08:38:01;;;;;;;;;;;;;;;18.25;79.31;98314.89;1784204;79;20466;-85
2021/08/24 08:40:45;;;;;;;;;;;;;;;18.29;79.43;98311.77;1792029;79;20303;-85
2021/08/24 08:43:24;;;;;;;;;;;;;;;18.32;79.54;98314.61;1725137;82;24846;-85
2021/08/24 08:45:51;;;;;;;;;;;;;;;18.31;79.60;98328.84;1767391;80;21949;-85
2021/08/24 08:48:32;;;;;;;;;;;;;;;17.98;79.60;98318.06;1777153;79;25993;-84
2021/08/24 08:50:59;;;;;;;;;;;;;;;17.74;79.50;98331.13;1776001;79;25217;-85
2021/08/24 08:53:27;;;;;;;;;;;;;;;17.51;79.44;98329.95;1782440;79;20276;-85
2021/08/24 08:55:58;;;;;;;;;;;;;;;17.32;79.43;98338.03;1783632;79;24767;-84
2021/08/24 08:58:43;;;;;;;;;;;;;;;17.14;79.46;98344.15;1749973;79;21788;-85
2021/08/24 09:01:28;;;;;;;;;;;;;;;17.05;79.53;98342.91;1796928;79;25967;-84
2021/08/24 09:03:55;;;;;;;;;;;;;;;16.98;79.67;98347.95;1806994;79;24456;-85
2021/08/24 09:06:23;;;;;;;;;;;;;;;16.92;79.78;98352.51;1807680;79;20361;-84
2021/08/24 09:08:50;;;;;;;;;;;;;;;16.79;79.91;98354.70;1806123;79;24874;-84
2021/08/24 09:11:16;;;;;;;;;;;;;;;16.74;79.98;98354.31;1807506;79;21940;-84
2021/08/24 09:13:44;;;;;;;;;;;;;;;16.69;80.12;98357.88;1807885;79;26905;-84
2021/08/24 09:16:12;;;;;;;;;;;;;;;16.67;80.20;98353.22;1805252;79;24633;-85
2021/08/24 09:18:46;;;;;;;;;;;;;;;16.59;80.31;98361.87;1807946;79;20199;-84
2021/08/24 09:21:16;;;;;;;;;;;;;;;16.51;80.37;98371.48;1805521;79;25354;-84
2021/08/24 09:23:42;;;;;;;;;;;;;;;16.41;80.45;98372.86;1804875;79;21951;-84
2021/08/24 09:26:13;;;;;;;;;;;;;;;16.29;80.53;98369.56;1800037;79;25939;-84
2021/08/24 09:28:40;;;;;;;;;;;;;;;16.23;80.59;98377.22;1799993;79;24441;-84
2021/08/24 09:31:07;;;;;;;;;;;;;;;16.16;80.66;98381.41;1805122;79;20216;-84
2021/08/24 09:33:33;;;;;;;;;;;;;;;16.06;80.74;98387.20;1803809;78;24856;-84
2021/08/24 09:35:59;;;;;;;;;;;;;;;15.98;80.86;98389.25;1794151;78;21935;-84
2021/08/24 09:38:28;;;;;;;;;;;;;;;15.91;80.94;98397.38;1798683;78;26036;-86
2021/08/24 09:40:55;;;;;;;;;;;;;;;15.83;81.04;98398.07;1807078;78;24402;-86
2021/08/24 09:43:26;;;;;;;;;;;;;;;15.72;81.17;98398.70;1757724;80;20259;-88
2021/08/24 09:46:11;;;;;;;;;;;;;;;15.65;81.29;98404.22;1807381;79;24815;-88
2021/08/24 09:48:50;;;;;;;;;;;;;;;15.57;81.42;98406.70;1803032;79;22113;-87
2021/08/24 09:51:21;;;;;;;;;;;;;;;15.51;81.56;98414.65;1800318;78;25999;-86
2021/08/24 09:53:48;;;;;;;;;;;;;;;15.43;81.71;98417.16;1806120;79;24506;-86
2021/08/24 09:56:18;;;;;;;;;;;;;;;15.30;81.83;98425.33;1806697;78;20226;-86
2021/08/24 09:58:46;;;;;;;;;;;;;;;15.21;81.97;98423.52;1802646;78;24753;-86
2021/08/24 10:01:14;;;;;;;;;;;;;;;15.16;82.10;98430.17;1801338;78;22029;-86
2021/08/24 10:03:45;;;;;;;;;;;;;;;15.11;82.24;98437.14;1800680;79;25977;-87
2021/08/24 10:06:30;;;;;;;;;;;;;;;15.08;82.38;98434.79;1800518;79;24473;-87
2021/08/24 10:08:58;;;;;;;;;;;;;;;15.00;82.52;98441.23;1799906;78;20329;-87
2021/08/24 10:11:31;;;;;;;;;;;;;;;14.88;82.69;98446.25;1786644;79;20448;-87
2021/08/24 10:14:11;;;;;;;;;;;;;;;14.77;82.82;98451.14;1796227;79;21955;-87
2021/08/24 10:16:41;;;;;;;;;;;;;;;14.71;82.97;98456.94;1755800;80;26032;-87
2021/08/24 10:19:15;;;;;;;;;;;;;;;14.66;83.12;98452.55;1779474;78;25135;-87
2021/08/24 10:21:58;;;;;;;;;;;;;;;14.62;83.25;98455.91;1755743;80;20336;-87
2021/08/24 10:24:32;;;;;;;;;;;;;;;14.61;83.38;98460.01;1797008;79;24738;-86
2021/08/24 10:26:59;;;;;;;;;;;;;;;14.58;83.49;98466.84;1774103;79;22713;-86
2021/08/24 10:29:30;;;;;;;;;;;;;;;14.61;83.62;98471.86;1777147;80;26167;-87
2021/08/24 10:31:58;;;;;;;;;;;;;;;14.67;83.72;98478.41;1776859;79;24412;-87
2021/08/24 10:34:39;;;;;;;;;;;;;;;14.69;83.84;98476.45;1799201;79;20172;-88
2021/08/24 10:37:17;;;;;;;;;;;;;;;14.68;83.98;98476.09;1780863;79;24761;-87
2021/08/24 10:39:43;;;;;;;;;;;;;;;14.62;84.12;98483.56;1743518;81;21872;-86
2021/08/24 10:42:26;;;;;;;;;;;;;;;14.61;84.26;98488.98;1786369;79;25928;-86
2021/08/24 10:44:56;;;;;;;;;;;;;;;14.59;84.30;98489.11;1791175;79;26695;-87
2021/08/24 10:47:32;;;;;;;;;;;;;;;14.60;84.41;98496.05;1789804;79;20237;-87
2021/08/24 10:49:59;;;;;;;;;;;;;;;14.61;84.53;98487.66;1783910;79;24849;-87
2021/08/24 10:52:44;;;;;;;;;;;;;;;14.62;84.66;98495.41;1763140;80;21963;-88
2021/08/24 10:55:14;;;;;;;;;;;;;;;14.64;84.76;98492.66;1748169;80;26026;-88
2021/08/24 10:57:45;;;;;;;;;;;;;;;14.60;84.92;98497.37;1740262;81;20488;-89
2021/08/24 11:00:22;;;;;;;;;;;;;;;14.61;84.98;98500.36;1796948;78;20231;-88
2021/08/24 11:02:56;;;;;;;;;;;;;;;14.67;85.07;98494.21;1797900;79;25644;-88
2021/08/24 11:05:39;;;;;;;;;;;;;;;14.72;85.19;98504.70;1804023;78;21927;-88
2021/08/24 11:08:16;;;;;;;;;;;;;;;14.67;85.27;98494.21;1799834;79;26004;-89
2021/08/24 11:10:45;;;;;;;;;;;;;;;14.76;85.33;98510.06;1796375;79;24411;-90
2021/08/24 11:13:19;;;;;;;;;;;;;;;14.80;85.38;98515.89;1797602;79;21034;-89
2021/08/24 11:15:47;;;;;;;;;;;;;;;14.84;85.46;98506.74;1800353;79;24760;-89
2021/08/24 11:18:37;;;;;;;;;;;;;;;14.84;85.56;98518.12;1800211;79;22030;-88
2021/08/24 11:21:25;;;;;;;;;;;;;;;14.84;85.58;98522.07;1798695;79;25954;-88
2021/08/24 11:24:10;;;;;;;;;;;;;;;14.81;85.66;98521.03;1799880;79;24508;-89
2021/08/24 11:26:37;;;;;;;;;;;;;;;14.79;85.68;98524.75;1797175;78;20179;-88
2021/08/24 11:29:11;;;;;;;;;;;;;;;14.80;85.72;98533.02;1799067;79;24826;-88
2021/08/24 11:31:51;;;;;;;;;;;;;;;14.81;85.76;98534.20;1796498;79;21888;-87
2021/08/24 11:34:19;;;;;;;;;;;;;;;14.83;85.80;98540.67;1777583;78;25940;-87
2021/08/24 11:37:04;;;;;;;;;;;;;;;14.88;85.82;98545.06;1792428;79;21424;-88
2021/08/24 11:39:35;;;;;;;;;;;;;;;14.86;85.86;98542.55;1794703;78;20286;-88
2021/08/24 11:42:02;;;;;;;;;;;;;;;14.83;85.87;98553.84;1798009;79;24888;-89
2021/08/24 11:44:33;;;;;;;;;;;;;;;14.82;85.85;98558.76;1787885;79;22895;-88
2021/08/24 11:47:02;;;;;;;;;;;;;;;14.77;85.86;98559.16;1792800;79;26555;-88
2021/08/24 11:49:39;;;;;;;;;;;;;;;14.74;85.84;98561.20;1797055;79;24431;-88
2021/08/24 11:52:21;;;;;;;;;;;;;;;14.73;85.82;98567.45;1797579;79;20314;-88
2021/08/24 11:54:49;;;;;;;;;;;;;;;14.72;85.84;98579.79;1799316;79;24769;-89
2021/08/24 11:57:17;;;;;;;;;;;;;;;14.67;85.85;98582.45;1795448;79;22786;-89
2021/08/24 11:59:45;;;;;;;;;;;;;;;14.63;85.86;98587.97;1795851;79;26015;-87
2021/08/24 12:02:25;;;;;;;;;;;;;;;14.56;85.85;98595.20;1789637;79;24408;-88
2021/08/24 12:04:57;;;;;;;;;;;;;;;14.51;85.87;98594.25;1783980;79;20203;-87
2021/08/24 12:07:25;;;;;;;;;;;;;;;14.50;85.90;98597.03;1782193;79;24919;-87
2021/08/24 12:09:54;;;;;;;;;;;;;;;14.49;85.91;98600.14;1742069;80;21996;-88
2021/08/24 12:12:34;;;;;;;;;;;;;;;14.53;85.97;98610.77;1790217;79;26773;-88
2021/08/24 12:15:03;;;;;;;;;;;;;;;14.55;86.03;98612.81;1784488;79;25233;-88
2021/08/24 12:17:30;;;;;;;;;;;;;;;14.60;86.08;98617.20;1778226;79;20214;-88
2021/08/24 12:20:04;;;;;;;;;;;;;;;14.62;86.13;98624.95;1737088;80;24933;-88
2021/08/24 12:22:38;;;;;;;;;;;;;;;14.64;86.18;98620.41;1781008;79;22820;-88
2021/08/24 12:25:29;;;;;;;;;;;;;;;14.68;86.22;98630.20;1776905;78;26055;-89
2021/08/24 12:27:59;;;;;;;;;;;;;;;14.68;86.25;98632.35;1776710;79;24442;-87
2021/08/24 12:30:27;;;;;;;;;;;;;;;14.72;86.29;98642.17;1742013;79;20217;-90
2021/08/24 12:32:55;;;;;;;;;;;;;;;14.76;86.33;98647.53;1772737;79;25909;-90
2021/08/24 12:35:26;;;;;;;;;;;;;;;14.81;86.41;98653.25;1742335;80;22600;-90
2021/08/24 12:37:54;;;;;;;;;;;;;;;14.79;86.41;98651.22;1742008;80;26039;-90
2021/08/24 12:40:21;;;;;;;;;;;;;;;14.75;86.42;98651.13;1754545;80;24581;-90
2021/08/24 12:43:06;;;;;;;;;;;;;;;14.74;86.43;98659.98;1746746;80;20245;-89
2021/08/24 12:45:33;;;;;;;;;;;;;;;14.71;86.45;98664.20;1733629;80;24779;-88
2021/08/24 12:48:18;;;;;;;;;;;;;;;14.63;86.45;98670.09;1764955;79;20188;-88
2021/08/24 12:50:46;;;;;;;;;;;;;;;14.57;86.45;98669.28;1746514;80;26638;-87
2021/08/24 12:53:30;;;;;;;;;;;;;;;14.54;86.47;98671.70;1785233;79;24449;-87
2021/08/24 12:56:00;;;;;;;;;;;;;;;14.51;86.49;98670.62;1785744;79;20225;-87
2021/08/24 12:58:28;;;;;;;;;;;;;;;14.56;86.52;98676.86;1779237;79;25507;-88
2021/08/24 13:01:14;;;;;;;;;;;;;;;14.56;86.57;98682.13;1790241;79;22782;-87